Time;durP1;ratioP1;P1;durP2;ratioP2;P2;SDS_P1;SDS_P2;PMS_P1;PMS_P2;Temp;Humidity;BMP_temperature;BMP_pressure;BME280_temperature;BME280_humidity;BME280_pressure;Samples;Min_cycle;Max_cycle;Signal;HPM_P1;HPM_P2
2022/08/08 00:00:54;;;;;;;4.15;3.75;;;;;;;20.39;64.81;100141.31;5016815;28;20037;-87
2022/08/08 00:03:24;;;;;;;4.07;3.67;;;;;;;20.35;65.11;100143.59;5017781;28;20049;-87
2022/08/08 00:06:05;;;;;;;5.50;3.65;;;;;;;20.41;65.34;100147.25;5013946;28;20042;-90
2022/08/08 00:08:38;;;;;;;4.70;3.90;;;;;;;20.32;65.39;100124.91;5013074;28;20495;-87
2022/08/08 00:11:15;;;;;;;4.78;3.58;;;;;;;20.27;65.96;100130.44;5029596;28;20395;-82
2022/08/08 00:14:03;;;;;;;4.30;3.67;;;;;;;20.30;67.21;100144.34;5016094;28;20499;-82
2022/08/08 00:16:39;;;;;;;4.63;3.60;;;;;;;20.19;67.17;100138.59;5020226;28;20037;-82
2022/08/08 00:19:16;;;;;;;4.10;3.70;;;;;;;20.13;67.68;100134.97;5008469;28;20045;-81
2022/08/08 00:21:54;;;;;;;5.88;3.85;;;;;;;20.16;67.93;100128.34;5033116;28;20065;-82
2022/08/08 00:24:42;;;;;;;4.43;4.03;;;;;;;20.11;68.26;100125.47;5031126;28;20112;-80
2022/08/08 00:27:10;;;;;;;5.03;4.05;;;;;;;20.15;68.41;100132.41;5052180;28;20045;-81
2022/08/08 00:29:50;;;;;;;6.68;3.90;;;;;;;20.07;69.18;100120.06;5017062;28;20036;-82
2022/08/08 00:32:21;;;;;;;4.20;3.72;;;;;;;20.02;69.66;100123.59;5030898;28;20032;-82
2022/08/08 00:35:09;;;;;;;6.53;4.22;;;;;;;19.95;70.14;100126.88;5026380;28;20037;-82
2022/08/08 00:37:59;;;;;;;4.60;3.88;;;;;;;19.97;70.27;100127.94;5012643;28;20084;-83
2022/08/08 00:41:05;;;;;;;4.50;4.10;;;;;;;19.94;70.72;100140.19;4995165;28;20407;-83
2022/08/08 00:43:37;;;;;;;7.65;3.92;;;;;;;19.84;71.54;100147.28;5014146;28;20041;-83
2022/08/08 00:46:17;;;;;;;4.88;4.18;;;;;;;19.85;71.88;100156.50;5031289;28;20026;-83
2022/08/08 00:49:17;;;;;;;6.15;4.40;;;;;;;19.76;72.80;100160.25;5013842;28;20104;-83
2022/08/08 00:52:03;;;;;;;5.40;4.30;;;;;;;19.71;73.22;100144.06;5013829;28;20057;-82
2022/08/08 00:54:28;;;;;;;5.43;4.30;;;;;;;19.66;74.48;100158.09;4996318;28;20090;-82
2022/08/08 00:57:34;;;;;;;4.43;4.00;;;;;;;19.59;74.60;100155.72;5018078;28;20030;-81
2022/08/08 01:00:21;;;;;;;4.90;4.20;;;;;;;19.61;75.04;100158.81;5048815;28;20049;-81
2022/08/08 01:18:30;;;;;;;5.68;4.68;;;;;;;19.48;77.28;100171.22;5070251;28;20130;-87
2022/08/08 01:21:23;;;;;;;5.72;4.30;;;;;;;19.48;77.55;100174.03;5053635;28;20045;-88
2022/08/08 01:24:20;;;;;;;5.15;4.65;;;;;;;19.44;77.77;100172.72;5052487;28;20498;-87
2022/08/08 01:27:06;;;;;;;5.35;4.72;;;;;;;19.41;77.88;100168.06;5087477;28;20036;-87
2022/08/08 01:29:36;;;;;;;6.82;5.00;;;;;;;19.48;77.79;100171.22;5055718;28;20041;-87
2022/08/08 01:32:27;;;;;;;6.88;4.63;;;;;;;19.43;78.58;100173.97;5072216;28;20048;-88
2022/08/08 01:35:02;;;;;;;4.90;4.38;;;;;;;19.41;78.30;100174.44;5072331;28;20482;-87
2022/08/08 01:38:01;;;;;;;5.63;4.93;;;;;;;19.34;78.96;100177.69;5071951;28;20037;-88
2022/08/08 01:40:46;;;;;;;5.80;5.18;;;;;;;19.30;79.24;100171.50;5055918;28;20048;-88
2022/08/08 01:43:13;;;;;;;5.32;4.82;;;;;;;19.32;79.33;100177.41;5071494;28;20402;-88
2022/08/08 01:45:48;;;;;;;5.15;4.65;;;;;;;19.28;79.45;100176.06;5071335;28;20033;-88
2022/08/08 01:48:22;;;;;;;5.60;5.03;;;;;;;19.32;79.19;100174.59;5053977;28;20040;-87
2022/08/08 01:51:07;;;;;;;5.25;4.75;;;;;;;19.30;79.46;100170.72;5056615;28;20075;-87
2022/08/08 01:53:45;;;;;;;5.65;4.82;;;;;;;19.30;79.74;100168.69;5071809;28;20066;-86
2022/08/08 01:56:22;;;;;;;5.38;4.55;;;;;;;19.23;79.98;100157.88;5053244;28;20043;-87
2022/08/08 01:59:03;;;;;;;5.82;5.20;;;;;;;19.33;79.59;100166.94;5069193;28;20053;-86
2022/08/08 02:02:09;;;;;;;5.53;5.03;;;;;;;19.27;79.77;100161.25;5052196;28;20064;-87
2022/08/08 02:05:05;;;;;;;6.53;4.70;;;;;;;19.26;79.48;100154.06;5057449;28;20053;-86
2022/08/08 02:07:38;;;;;;;5.32;4.82;;;;;;;19.34;79.60;100166.44;5076920;28;20067;-87
2022/08/08 02:10:42;;;;;;;5.90;4.70;;;;;;;19.34;79.56;100152.38;5071617;28;20044;-88
2022/08/08 02:13:13;;;;;;;5.63;5.05;;;;;;;19.37;79.79;100150.63;5040959;28;20818;-87
2022/08/08 02:15:53;;;;;;;5.20;4.70;;;;;;;19.30;80.18;100153.84;5071229;28;20044;-87
2022/08/08 02:18:42;;;;;;;5.43;4.93;;;;;;;19.26;80.39;100147.66;5054136;28;20397;-88
2022/08/08 02:24:18;;;;;;;5.68;5.07;;;;;;;19.12;81.01;100143.69;5046556;28;20044;-89
2022/08/08 02:27:06;;;;;;;6.53;5.10;;;;;;;19.12;81.20;100165.41;5067595;28;20062;-88
2022/08/08 02:29:59;;;;;;;5.53;5.03;;;;;;;19.07;81.41;100150.78;5034875;28;20045;-89
2022/08/08 02:32:54;;;;;;;5.88;4.97;;;;;;;19.15;81.05;100153.94;5045568;28;20049;-88
2022/08/08 02:35:39;;;;;;;5.65;5.15;;;;;;;19.12;81.39;100154.16;5042302;28;20045;-88
2022/08/08 02:38:29;;;;;;;6.28;5.28;;;;;;;19.09;81.43;100155.91;5068847;28;20098;-89
2022/08/08 02:41:16;;;;;;;6.15;5.10;;;;;;;19.09;81.38;100142.63;5071227;28;20383;-88
2022/08/08 02:43:54;;;;;;;6.20;5.35;;;;;;;19.04;82.00;100146.16;5065548;28;20124;-89
2022/08/08 02:46:22;;;;;;;6.90;5.35;;;;;;;18.96;82.19;100145.03;5056593;28;20086;-89
2022/08/08 02:49:13;;;;;;;6.32;4.85;;;;;;;18.96;82.46;100138.63;5034291;28;20077;-88
2022/08/08 02:52:14;;;;;;;6.30;5.68;;;;;;;18.90;82.42;100144.19;5050504;28;20068;-88
2022/08/08 02:54:52;;;;;;;6.72;5.70;;;;;;;18.89;82.79;100144.66;5085939;28;20055;-88
2022/08/08 02:57:43;;;;;;;7.03;5.13;;;;;;;18.94;82.30;100155.97;5069164;28;20104;-86
2022/08/08 03:00:27;;;;;;;8.05;4.75;;;;;;;18.95;82.10;100151.91;5055901;28;20120;-88
2022/08/08 03:03:17;;;;;;;5.68;4.80;;;;;;;18.90;82.55;100157.44;5051134;28;20045;-87
2022/08/08 03:06:18;;;;;;;5.95;4.93;;;;;;;18.88;82.88;100160.78;5050492;28;20274;-87
2022/08/08 03:09:03;;;;;;;6.55;5.20;;;;;;;18.85;82.81;100166.56;5033830;28;20111;-85
2022/08/08 03:11:41;;;;;;;5.95;5.28;;;;;;;18.81;83.08;100161.16;5068028;28;20052;-86
2022/08/08 03:14:06;;;;;;;5.55;5.00;;;;;;;18.84;83.15;100168.63;5071162;28;20517;-87
2022/08/08 03:17:24;;;;;;;7.28;5.30;;;;;;;18.74;83.72;100146.75;5070361;28;20131;-88
2022/08/08 03:20:10;;;;;;;5.85;5.30;;;;;;;18.80;83.50;100164.50;5009504;28;20038;-87
2022/08/08 03:22:50;;;;;;;6.32;5.38;;;;;;;18.72;83.41;100160.53;5066558;28;20037;-83
2022/08/08 03:25:17;;;;;;;6.40;5.50;;;;;;;18.72;83.12;100157.72;5053654;28;20132;-88
2022/08/08 03:27:58;;;;;;;7.72;4.97;;;;;;;18.67;83.54;100170.44;5044417;28;20037;-88
2022/08/08 03:30:27;;;;;;;5.80;5.30;;;;;;;18.64;83.43;100166.56;5070778;28;20577;-88
2022/08/08 03:35:40;;;;;;;7.15;5.40;;;;;;;18.66;82.93;100174.50;5073067;28;20495;-89
2022/08/08 03:38:08;;;;;;;6.10;5.32;;;;;;;18.68;82.93;100183.22;5066374;28;20064;-87
2022/08/08 03:40:34;;;;;;;7.18;5.40;;;;;;;18.65;82.58;100184.19;5053356;28;20557;-88
2022/08/08 03:43:02;;;;;;;6.95;5.30;;;;;;;18.70;82.79;100186.31;5057176;28;20162;-87
2022/08/08 03:45:29;;;;;;;5.63;5.05;;;;;;;18.70;82.41;100185.53;5059659;28;20067;-88
2022/08/08 03:47:58;;;;;;;8.38;5.28;;;;;;;18.72;82.97;100185.84;5065787;28;20494;-87
2022/08/08 03:50:25;;;;;;;8.57;5.43;;;;;;;18.74;84.23;100183.28;5053676;28;20052;-85
2022/08/08 03:52:52;;;;;;;9.52;5.43;;;;;;;18.71;84.58;100192.72;5065870;28;20422;-84
2022/08/08 03:55:19;;;;;;;9.57;5.68;;;;;;;18.72;84.52;100194.25;5050526;28;20119;-86
2022/08/08 03:57:48;;;;;;;7.78;5.38;;;;;;;18.76;83.21;100201.22;5075406;28;20039;-86
2022/08/08 04:00:16;;;;;;;6.30;5.30;;;;;;;18.71;82.36;100184.28;5065385;28;20037;-86
2022/08/08 04:03:00;;;;;;;5.47;4.97;;;;;;;18.73;82.43;100187.34;5068420;28;20045;-86
2022/08/08 04:05:28;;;;;;;5.90;5.15;;;;;;;18.71;82.21;100182.25;5064896;28;20175;-85
2022/08/08 04:07:54;;;;;;;6.75;5.43;;;;;;;18.67;82.51;100183.72;5085762;28;20044;-86
2022/08/08 04:10:20;;;;;;;5.50;5.00;;;;;;;18.63;81.90;100187.50;5066667;28;20044;-86
2022/08/08 04:12:46;;;;;;;8.00;6.20;;;;;;;18.66;82.12;100193.41;5069648;28;20123;-86
2022/08/08 04:15:11;;;;;;;5.72;5.18;;;;;;;18.69;81.91;100209.25;5072191;28;20039;-86
2022/08/08 04:17:37;;;;;;;6.97;5.53;;;;;;;18.71;82.12;100198.31;5056494;28;20049;-86
2022/08/08 04:20:03;;;;;;;8.82;5.35;;;;;;;18.73;81.36;100198.59;5058142;28;20040;-83
2022/08/08 04:22:30;;;;;;;7.18;5.50;;;;;;;18.78;81.17;100198.69;5054635;28;20521;-85
2022/08/08 04:24:57;;;;;;;5.65;5.00;;;;;;;18.78;81.11;100197.91;5073192;28;20577;-86
2022/08/08 04:27:23;;;;;;;5.93;5.25;;;;;;;18.81;81.18;100196.94;5073510;28;20163;-87
2022/08/08 04:29:49;;;;;;;6.90;5.07;;;;;;;18.90;80.32;100205.22;5056712;28;20068;-86
2022/08/08 04:32:14;;;;;;;20.33;6.40;;;;;;;18.85;80.73;100203.88;5055711;28;20040;-85
2022/08/08 04:34:40;;;;;;;6.15;4.97;;;;;;;18.85;80.52;100203.13;5044718;28;20036;-84
2022/08/08 04:37:07;;;;;;;7.35;5.20;;;;;;;18.87;80.81;100206.22;5067071;28;20506;-83
2022/08/08 04:39:35;;;;;;;5.63;5.13;;;;;;;18.91;80.85;100218.03;5055916;28;20049;-83
2022/08/08 04:42:00;;;;;;;6.97;4.88;;;;;;;18.91;79.99;100224.44;5068949;28;20442;-84
2022/08/08 04:44:27;;;;;;;6.80;4.90;;;;;;;18.93;80.25;100235.16;5072138;28;20029;-85
2022/08/08 04:46:54;;;;;;;9.68;5.82;;;;;;;18.94;80.72;100233.91;5074288;28;20048;-87
2022/08/08 04:49:19;;;;;;;9.50;5.43;;;;;;;18.97;80.43;100239.31;5075344;28;20040;-87
2022/08/08 04:51:45;;;;;;;5.53;4.90;;;;;;;19.04;79.67;100236.13;5091161;28;20121;-86
2022/08/08 04:54:11;;;;;;;7.25;4.82;;;;;;;19.13;79.31;100240.06;5077519;28;20493;-87
2022/08/08 04:56:37;;;;;;;5.28;4.78;;;;;;;19.12;79.38;100238.50;5070568;28;20084;-89
2022/08/08 04:59:04;;;;;;;5.95;5.03;;;;;;;19.13;78.92;100238.00;5076966;28;20047;-89
2022/08/08 05:01:31;;;;;;;5.03;4.43;;;;;;;19.17;78.95;100249.81;5063395;28;20044;-90
2022/08/08 05:03:56;;;;;;;6.38;4.90;;;;;;;19.21;79.00;100250.38;5039865;28;20485;-88
2022/08/08 05:06:22;;;;;;;6.00;4.60;;;;;;;19.26;77.81;100229.22;5058140;28;20052;-88
2022/08/08 05:08:48;;;;;;;6.18;4.57;;;;;;;19.33;77.81;100252.06;5074870;28;20124;-89
2022/08/08 05:11:14;;;;;;;5.70;5.00;;;;;;;19.35;77.86;100252.38;5076180;28;20056;-90
2022/08/08 05:13:40;;;;;;;5.97;4.40;;;;;;;19.31;78.39;100239.78;5088883;28;20037;-89
2022/08/08 05:16:06;;;;;;;5.55;4.60;;;;;;;19.32;78.08;100241.31;5057484;28;20047;-89
2022/08/08 05:18:32;;;;;;;7.40;4.88;;;;;;;19.30;78.71;100243.84;5073302;28;20063;-89
2022/08/08 05:20:59;;;;;;;5.03;4.47;;;;;;;19.37;77.90;100249.06;5091098;28;20036;-89
2022/08/08 05:23:25;;;;;;;5.13;4.63;;;;;;;19.37;77.29;100255.44;5055219;28;20045;-89
2022/08/08 05:25:51;;;;;;;6.28;4.60;;;;;;;19.32;77.50;100247.72;5076057;28;20405;-90
2022/08/08 05:28:19;;;;;;;5.10;4.60;;;;;;;19.42;77.34;100254.78;5084383;28;20119;-90
2022/08/08 05:30:44;;;;;;;5.35;4.72;;;;;;;19.50;76.55;100258.72;5072065;28;20052;-89
2022/08/08 05:33:11;;;;;;;4.85;4.35;;;;;;;19.61;76.54;100251.69;5072941;28;20075;-89
2022/08/08 05:35:39;;;;;;;6.20;4.88;;;;;;;19.59;77.64;100254.19;5072858;28;20056;-82
2022/08/08 05:38:12;;;;;;;6.75;5.32;;;;;;;19.72;76.98;100275.09;5073091;28;20037;-82
2022/08/08 05:40:48;;;;;;;7.53;4.93;;;;;;;19.68;76.15;100259.69;5055554;28;20128;-83
2022/08/08 05:43:25;;;;;;;5.95;4.80;;;;;;;19.78;75.60;100266.69;5071348;28;20037;-83
2022/08/08 05:46:01;;;;;;;7.20;4.75;;;;;;;19.83;75.64;100260.34;5055125;28;20098;-83
2022/08/08 05:48:27;;;;;;;6.05;4.68;;;;;;;19.88;74.00;100262.47;5054515;28;20447;-82
2022/08/08 05:50:53;;;;;;;6.85;4.38;;;;;;;19.91;74.21;100247.38;5071579;28;20064;-81
2022/08/08 05:53:26;;;;;;;6.97;4.60;;;;;;;19.97;72.82;100265.13;5071316;28;20206;-83
2022/08/08 05:55:56;;;;;;;5.80;4.10;;;;;;;20.03;72.00;100271.56;5040076;28;20041;-82
2022/08/08 05:58:26;;;;;;;8.23;4.00;;;;;;;20.00;71.33;100261.31;5054500;28;20044;-81
2022/08/08 06:00:58;;;;;;;4.78;3.70;;;;;;;20.13;70.36;100269.38;5087699;28;20051;-82
2022/08/08 06:03:24;;;;;;;4.40;3.85;;;;;;;20.14;70.62;100254.03;5072279;28;20110;-82
2022/08/08 06:05:59;;;;;;;5.43;3.85;;;;;;;20.12;69.70;100257.34;5039754;28;20090;-82
2022/08/08 06:08:55;;;;;;;6.65;3.88;;;;;;;20.14;70.30;100259.66;5054322;28;20094;-83
2022/08/08 06:11:21;;;;;;;8.70;4.20;;;;;;;20.12;69.55;100262.97;5025227;28;20052;-79
2022/08/08 06:13:48;;;;;;;9.27;3.70;;;;;;;20.07;69.99;100260.88;5053641;28;20050;-83
2022/08/08 06:16:20;;;;;;;11.43;3.97;;;;;;;20.18;69.32;100258.16;5055358;28;20457;-81
2022/08/08 06:19:08;;;;;;;4.85;3.65;;;;;;;20.16;69.19;100257.13;5069231;28;20032;-80
2022/08/08 06:21:37;;;;;;;7.85;4.10;;;;;;;20.04;69.54;100256.25;5035668;28;20075;-84
2022/08/08 06:24:05;;;;;;;8.70;4.10;;;;;;;20.16;69.81;100255.06;5052224;28;20493;-81
2022/08/08 06:26:41;;;;;;;5.47;3.58;;;;;;;20.24;69.25;100258.97;5038115;28;20406;-82
2022/08/08 06:31:49;;;;;;;5.53;3.78;;;;;;;20.26;69.46;100262.06;3321717;26;20055;-83
2022/08/08 06:34:17;;;;;;;8.63;3.80;;;;;;;20.33;69.87;100272.16;5112016;28;20044;-83
2022/08/08 06:36:57;;;;;;;5.28;3.78;;;;;;;20.37;69.60;100267.84;5092730;28;20039;-82
2022/08/08 06:39:49;;;;;;;5.43;4.00;;;;;;;20.34;69.46;100260.38;5078322;28;20040;-84
2022/08/08 06:42:17;;;;;;;5.47;3.92;;;;;;;20.34;69.52;100263.19;5077170;28;20420;-83
2022/08/08 06:44:48;;;;;;;5.93;3.95;;;;;;;20.34;69.59;100263.19;5077249;28;20063;-83
2022/08/08 06:47:13;;;;;;;8.02;4.57;;;;;;;20.25;68.77;100260.53;5094967;28;20047;-84
2022/08/08 06:49:40;;;;;;;5.53;3.67;;;;;;;20.44;69.09;100267.38;5077046;28;20046;-85
2022/08/08 06:52:06;;;;;;;5.82;3.95;;;;;;;20.56;68.78;100264.66;5077598;28;20086;-84
2022/08/08 06:54:33;;;;;;;5.47;4.00;;;;;;;20.65;67.74;100281.38;5075859;28;20063;-83
2022/08/08 06:56:59;;;;;;;5.78;3.67;;;;;;;20.64;68.06;100277.00;5111375;28;20042;-83
2022/08/08 06:59:27;;;;;;;9.25;4.28;;;;;;;20.61;68.05;100269.56;5077472;28;20484;-84
2022/08/08 07:02:00;;;;;;;6.20;3.72;;;;;;;20.65;68.47;100281.38;5095438;28;20039;-83
2022/08/08 07:04:48;;;;;;;8.13;3.78;;;;;;;20.81;67.57;100289.19;5093996;28;20602;-84
2022/08/08 07:07:18;;;;;;;5.28;3.53;;;;;;;20.84;67.18;100285.38;5093601;28;20456;-88
2022/08/08 07:10:01;;;;;;;5.72;3.83;;;;;;;20.86;66.91;100283.59;5063974;28;20581;-87
2022/08/08 07:12:40;;;;;;;5.65;3.60;;;;;;;20.88;66.92;100300.00;5080505;28;20127;-87
2022/08/08 07:15:08;;;;;;;18.98;4.80;;;;;;;20.76;67.00;100299.16;5080177;28;20126;-86
2022/08/08 07:17:55;;;;;;;25.92;5.90;;;;;;;20.73;66.59;100297.34;5077036;28;20038;-86
2022/08/08 07:20:26;;;;;;;7.72;3.70;;;;;;;20.56;67.19;100302.06;5058793;28;20467;-86
2022/08/08 07:23:00;;;;;;;4.28;3.42;;;;;;;20.57;67.60;100302.84;5060210;28;20419;-88
2022/08/08 07:25:27;;;;;;;5.57;3.47;;;;;;;20.66;67.29;100306.25;5075786;28;20039;-89
2022/08/08 07:28:05;;;;;;;7.75;3.85;;;;;;;20.69;65.78;100307.31;5074765;28;20032;-88
2022/08/08 07:30:31;;;;;;;5.20;3.58;;;;;;;20.72;66.56;100314.75;5093624;28;20040;-87
2022/08/08 07:32:57;;;;;;;5.35;3.80;;;;;;;20.77;66.18;100305.56;5038894;28;20524;-88
2022/08/08 07:35:24;;;;;;;7.15;3.80;;;;;;;20.88;65.75;100302.81;5071230;28;20064;-88
2022/08/08 07:37:51;;;;;;;7.85;3.70;;;;;;;20.74;65.62;100310.19;5055476;28;20058;-88
2022/08/08 07:40:22;;;;;;;5.57;3.60;;;;;;;20.75;66.30;100303.25;5037146;28;20043;-88
2022/08/08 07:42:51;;;;;;;5.35;3.72;;;;;;;20.85;66.20;100315.88;5035496;28;20386;-87
2022/08/08 07:45:17;;;;;;;11.85;4.20;;;;;;;20.72;67.14;100320.38;5036080;28;20028;-86
2022/08/08 07:47:43;;;;;;;5.43;4.18;;;;;;;20.67;67.68;100318.28;5070289;28;20520;-84
2022/08/08 07:50:11;;;;;;;4.57;3.60;;;;;;;20.72;67.05;100318.34;5055364;28;20041;-84
2022/08/08 07:52:45;;;;;;;5.50;3.97;;;;;;;20.73;67.45;100327.56;5056393;28;20048;-84
2022/08/08 07:55:21;;;;;;;8.00;4.15;;;;;;;20.81;66.62;100332.25;5039800;28;20036;-84
2022/08/08 07:58:07;;;;;;;6.68;3.65;;;;;;;20.82;67.21;100324.59;5074056;28;20226;-84
2022/08/08 08:00:40;;;;;;;4.90;3.67;;;;;;;21.03;66.26;100331.63;5056725;28;20044;-84
2022/08/08 08:03:13;;;;;;;4.38;3.70;;;;;;;21.11;65.62;100329.91;5056066;28;20133;-84
2022/08/08 08:05:42;;;;;;;5.30;3.78;;;;;;;21.30;65.57;100322.63;5023368;28;20036;-84
2022/08/08 08:08:17;;;;;;;8.07;3.50;;;;;;;21.24;65.58;100327.44;5049434;28;20019;-85
2022/08/08 08:10:44;;;;;;;7.20;3.90;;;;;;;21.42;65.54;100331.94;5096299;28;20442;-84
2022/08/08 08:13:20;;;;;;;6.38;3.90;;;;;;;21.37;65.28;100324.19;5106684;28;20515;-85
2022/08/08 08:16:02;;;;;;;6.25;3.72;;;;;;;21.53;64.24;100329.16;5067292;28;20390;-83
2022/08/08 08:18:41;;;;;;;5.07;3.90;;;;;;;21.69;64.52;100334.09;5075443;28;20499;-84
2022/08/08 08:21:07;;;;;;;4.55;3.17;;;;;;;21.83;64.37;100338.03;5076077;28;20127;-86
2022/08/08 08:23:34;;;;;;;5.13;3.60;;;;;;;21.95;62.62;100336.81;5059421;28;20082;-88
2022/08/08 08:26:00;;;;;;;5.88;3.80;;;;;;;22.24;61.57;100339.19;5093985;28;20037;-88
2022/08/08 08:28:26;;;;;;;6.43;3.60;;;;;;;22.14;62.18;100337.88;5075214;28;20127;-88
2022/08/08 08:30:57;;;;;;;6.80;3.63;;;;;;;22.18;60.01;100335.59;5059744;28;20047;-88
2022/08/08 08:33:25;;;;;;;6.43;3.33;;;;;;;22.31;59.85;100350.00;5090230;28;20043;-86
2022/08/08 08:35:51;;;;;;;6.68;3.50;;;;;;;22.07;59.20;100352.50;5088060;28;20109;-86
2022/08/08 08:38:16;;;;;;;5.95;3.70;;;;;;;22.07;59.90;100358.16;5095895;28;20048;-86
2022/08/08 08:40:42;;;;;;;5.47;3.33;;;;;;;21.88;59.08;100353.44;5095928;28;20051;-87
2022/08/08 08:43:09;;;;;;;4.45;3.40;;;;;;;21.75;61.22;100349.03;5106711;28;20036;-85
2022/08/08 08:45:36;;;;;;;6.57;3.67;;;;;;;21.80;61.19;100355.97;5112791;28;20035;-84
2022/08/08 08:48:02;;;;;;;4.65;3.47;;;;;;;21.96;59.91;100358.09;5089328;28;20118;-84
2022/08/08 08:50:34;;;;;;;5.32;3.22;;;;;;;22.04;59.62;100352.75;5112758;28;20424;-86
2022/08/08 08:53:02;;;;;;;4.97;3.50;;;;;;;22.13;59.17;100350.47;5105648;28;20051;-86
2022/08/08 08:55:31;;;;;;;8.95;3.53;;;;;;;22.04;59.86;100352.75;5112283;28;20493;-85
2022/08/08 08:57:57;;;;;;;7.65;3.88;;;;;;;21.95;59.64;100348.13;5087459;28;20043;-85
2022/08/08 09:00:23;;;;;;;6.38;3.63;;;;;;;22.01;59.11;100365.84;5111463;28;20044;-86
2022/08/08 09:02:49;;;;;;;7.57;3.88;;;;;;;22.06;59.83;100361.50;5086991;28;20035;-85
2022/08/08 09:05:15;;;;;;;5.88;3.42;;;;;;;22.16;59.18;100357.91;5095108;27;20035;-84
2022/08/08 09:07:42;;;;;;;5.55;3.65;;;;;;;22.33;58.54;100369.25;5133019;27;20035;-85
2022/08/08 09:10:08;;;;;;;4.55;3.28;;;;;;;22.27;58.32;100340.22;5115138;27;20075;-86
2022/08/08 09:12:39;;;;;;;8.45;3.38;;;;;;;22.30;59.23;100354.09;5116311;27;20027;-88
2022/08/08 09:15:06;;;;;;;5.32;3.78;;;;;;;22.50;59.45;100355.16;5098054;27;20122;-85
2022/08/08 09:17:38;;;;;;;5.05;3.33;;;;;;;22.68;57.86;100337.72;5133984;27;20043;-88
2022/08/08 09:20:04;;;;;;;8.40;3.45;;;;;;;22.72;57.63;100343.91;5097878;27;20484;-86
2022/08/08 09:22:30;;;;;;;5.20;3.45;;;;;;;22.72;57.93;100355.22;5098190;27;20404;-85
2022/08/08 09:24:57;;;;;;;5.10;3.25;;;;;;;22.56;57.57;100331.28;5114688;27;20150;-83
2022/08/08 09:27:23;;;;;;;5.40;3.50;;;;;;;22.69;57.40;100340.03;5097808;27;20445;-83
2022/08/08 09:30:00;;;;;;;4.50;3.35;;;;;;;22.86;57.15;100353.41;5098057;27;20032;-83
2022/08/08 09:32:37;;;;;;;5.20;3.60;;;;;;;22.84;57.19;100347.50;5114991;27;20035;-83
2022/08/08 09:35:14;;;;;;;7.10;3.63;;;;;;;23.17;56.60;100344.66;5114388;27;20042;-85
2022/08/08 09:37:54;;;;;;;6.35;3.30;;;;;;;23.37;54.76;100352.09;5130948;27;20503;-87
2022/08/08 09:40:32;;;;;;;5.63;3.20;;;;;;;23.34;54.92;100347.44;5080651;27;20039;-84
2022/08/08 09:43:17;;;;;;;5.57;3.50;;;;;;;23.19;55.43;100353.41;5112172;27;20040;-83
2022/08/08 09:46:00;;;;;;;5.18;3.30;;;;;;;23.24;55.95;100341.28;5124166;27;20460;-83
2022/08/08 09:48:32;;;;;;;5.18;3.10;;;;;;;23.34;55.07;100345.38;5113072;27;20044;-84
2022/08/08 09:51:02;;;;;;;5.88;3.55;;;;;;;23.10;55.58;100350.81;5110624;27;20444;-82
2022/08/08 09:53:45;;;;;;;7.22;3.10;;;;;;;23.09;55.93;100343.66;5111504;27;20047;-83
2022/08/08 09:56:11;;;;;;;7.13;3.47;;;;;;;23.20;55.74;100354.94;5111421;27;20051;-84
2022/08/08 09:58:38;;;;;;;6.28;3.38;;;;;;;23.18;56.38;100344.13;5112669;27;20035;-83
2022/08/08 10:01:09;;;;;;;5.20;3.22;;;;;;;23.06;55.61;100345.44;5113645;27;20118;-87
2022/08/08 10:03:36;;;;;;;3.53;3.03;;;;;;;22.88;56.90;100350.84;5132491;27;20043;-86
2022/08/08 10:06:15;;;;;;;5.43;3.47;;;;;;;22.95;55.41;100342.63;5132396;27;20061;-86
2022/08/08 10:08:47;;;;;;;5.53;3.28;;;;;;;23.00;55.41;100336.19;5132276;27;20046;-86
2022/08/08 10:11:20;;;;;;;5.93;3.30;;;;;;;23.16;55.78;100338.22;5097702;27;20043;-86
2022/08/08 10:13:53;;;;;;;;;;;;;;;23.33;56.54;100334.59;5113946;27;20448;-87
2022/08/08 10:16:19;;;;;;;6.28;3.00;;;;;;;23.44;55.97;100334.59;5132478;27;20384;-86
2022/08/08 10:18:44;;;;;;;6.93;3.13;;;;;;;23.28;54.44;100341.81;5096687;27;20051;-86
2022/08/08 10:21:11;;;;;;;7.40;3.15;;;;;;;23.09;54.51;100344.38;5132108;27;20096;-86
2022/08/08 10:23:48;;;;;;;5.10;3.47;;;;;;;23.31;55.68;100342.81;5094968;27;20050;-86
2022/08/08 10:26:21;;;;;;;5.63;3.47;;;;;;;23.52;55.08;100342.03;5109741;28;20042;-86
2022/08/08 10:29:02;;;;;;;4.90;3.20;;;;;;;23.74;55.25;100334.75;5113560;27;20039;-86
2022/08/08 10:34:15;;;;;;;3.80;3.00;;;;;;;24.03;52.59;100339.75;5132144;27;20042;-85
2022/08/08 10:36:42;;;;;;;5.40;3.03;;;;;;;24.13;52.57;100344.59;5113970;27;20050;-87
2022/08/08 10:39:16;;;;;;;4.78;3.25;;;;;;;24.06;53.16;100350.06;5132246;27;20027;-87
2022/08/08 10:41:52;;;;;;;5.30;3.30;;;;;;;24.06;52.57;100339.47;5131185;27;20039;-86
2022/08/08 10:44:23;;;;;;;6.10;3.15;;;;;;;23.94;53.13;100343.66;5113472;27;20058;-87
2022/08/08 10:46:49;;;;;;;4.72;3.20;;;;;;;24.01;53.21;100336.69;5112938;27;20467;-85
2022/08/08 10:49:19;;;;;;;6.03;3.20;;;;;;;24.03;53.10;100334.84;5113406;27;20047;-86
2022/08/08 10:51:44;;;;;;;6.90;3.45;;;;;;;24.06;52.59;100333.78;5131587;27;20043;-85
2022/08/08 10:54:18;;;;;;;4.80;3.25;;;;;;;24.20;53.11;100331.97;5113142;27;20426;-85
2022/08/08 10:56:43;;;;;;;4.60;3.10;;;;;;;24.25;52.64;100338.88;5112647;27;20079;-85
2022/08/08 10:59:09;;;;;;;5.38;3.03;;;;;;;24.43;53.29;100341.06;5131498;27;20637;-85
2022/08/08 11:01:37;;;;;;;7.53;3.25;;;;;;;24.62;51.47;100344.81;5113161;28;20492;-86
2022/08/08 11:04:07;;;;;;;4.90;3.22;;;;;;;24.69;50.87;100338.56;5131274;27;20491;-86
2022/08/08 11:06:34;;;;;;;8.07;2.97;;;;;;;25.04;49.90;100332.09;5113008;27;20047;-86
2022/08/08 11:09:05;;;;;;;6.00;3.40;;;;;;;25.27;49.80;100327.75;5131534;27;20078;-87
2022/08/08 11:11:44;;;;;;;4.28;3.10;;;;;;;25.16;49.95;100324.25;5131065;27;20043;-85
2022/08/08 11:14:12;;;;;;;8.02;3.10;;;;;;;24.92;50.63;100339.19;5113207;28;20425;-85
2022/08/08 11:16:42;;;;;;;5.43;3.38;;;;;;;24.89;51.29;100335.34;5113153;27;20047;-86
2022/08/08 11:19:08;;;;;;;5.32;3.17;;;;;;;24.91;51.71;100338.41;5128140;27;20122;-85
2022/08/08 11:21:39;;;;;;;5.80;3.17;;;;;;;24.99;50.23;100338.63;5131802;27;20122;-84
2022/08/08 11:24:08;;;;;;;6.43;3.20;;;;;;;25.17;49.15;100337.13;5113181;28;20396;-87
2022/08/08 11:26:35;;;;;;;4.10;2.75;;;;;;;25.21;50.28;100327.03;5131661;28;20039;-87
2022/08/08 11:29:02;;;;;;;5.35;2.92;;;;;;;25.30;50.81;100329.53;5112887;28;20273;-88
2022/08/08 11:31:34;;;;;;;7.95;3.72;;;;;;;25.12;49.00;100332.28;5131075;28;20090;-85
2022/08/08 11:34:02;;;;;;;5.40;3.03;;;;;;;24.83;49.85;100331.75;5129892;28;20035;-85
2022/08/08 11:36:28;;;;;;;4.30;3.10;;;;;;;24.90;50.60;100331.22;5110989;28;20035;-83
2022/08/08 11:38:55;;;;;;;12.00;3.78;;;;;;;24.76;50.43;100326.66;5108717;28;20061;-83
2022/08/08 11:41:24;;;;;;;5.07;2.88;;;;;;;24.83;49.83;100337.41;5130419;28;20116;-83
2022/08/08 11:43:52;;;;;;;5.47;2.85;;;;;;;24.75;48.96;100335.72;5095347;28;20038;-83
2022/08/08 11:46:18;;;;;;;7.95;2.85;;;;;;;24.98;48.77;100332.16;5131258;28;20035;-83
2022/08/08 11:48:44;;;;;;;5.05;2.70;;;;;;;24.82;47.95;100335.91;5112528;28;20096;-83
2022/08/08 11:51:10;;;;;;;6.72;2.97;;;;;;;24.83;47.38;100331.75;5113064;28;20067;-85
2022/08/08 11:53:36;;;;;;;6.32;2.80;;;;;;;24.63;47.87;100341.44;5131340;28;20073;-84
2022/08/08 11:56:04;;;;;;;5.97;2.90;;;;;;;24.59;48.67;100337.34;5112568;28;20423;-87
2022/08/08 11:58:33;;;;;;;4.70;2.67;;;;;;;24.68;49.73;100341.94;5131100;28;20579;-87
2022/08/08 12:01:02;;;;;;;6.50;2.70;;;;;;;25.08;50.03;100336.19;5111593;28;20070;-86
2022/08/08 12:03:32;;;;;;;4.82;2.65;;;;;;;25.30;47.39;100340.09;5129167;28;20077;-86
2022/08/08 12:05:58;;;;;;;6.35;2.33;;;;;;;24.95;45.89;100344.56;5129032;28;20050;-86
2022/08/08 12:08:36;;;;;;;4.03;2.38;;;;;;;24.67;46.71;100340.41;5112704;28;20039;-86
2022/08/08 12:11:10;;;;;;;11.52;2.42;;;;;;;24.53;45.61;100347.97;5129937;28;20046;-87
2022/08/08 12:13:36;;;;;;;7.32;2.35;;;;;;;24.59;46.50;100340.19;5130867;28;20071;-83
2022/08/08 12:16:12;;;;;;;5.95;2.30;;;;;;;24.35;45.05;100334.44;5110977;28;20066;-83
2022/08/08 12:18:50;;;;;;;3.95;2.40;;;;;;;23.96;46.83;100345.97;5130103;28;20536;-83